sensor_id;sensor_type;location;lat;lon;timestamp;temperature;humidity
15967;DHT22;15175;48.154;11.534;2022-08-25T00:01:52;20.00;99.90
15967;DHT22;15175;48.154;11.534;2022-08-25T00:04:20;20.00;99.90
15967;DHT22;15175;48.154;11.534;2022-08-25T00:06:48;19.90;99.90
15967;DHT22;15175;48.154;11.534;2022-08-25T00:09:18;19.90;99.90
15967;DHT22;15175;48.154;11.534;2022-08-25T00:11:46;19.80;99.90
15967;DHT22;15175;48.154;11.534;2022-08-25T00:14:16;19.80;99.90
15967;DHT22;15175;48.154;11.534;2022-08-25T00:16:43;19.80;99.90
15967;DHT22;15175;48.154;11.534;2022-08-25T00:19:14;19.80;99.90
15967;DHT22;15175;48.154;11.534;2022-08-25T00:21:42;19.70;99.90
15967;DHT22;15175;48.154;11.534;2022-08-25T00:24:11;19.70;99.90
15967;DHT22;15175;48.154;11.534;2022-08-25T00:26:40;19.70;99.90
15967;DHT22;15175;48.154;11.534;2022-08-25T00:29:09;19.60;99.90
15967;DHT22;15175;48.154;11.534;2022-08-25T00:31:37;19.60;99.90
15967;DHT22;15175;48.154;11.534;2022-08-25T00:34:06;19.60;99.90
15967;DHT22;15175;48.154;11.534;2022-08-25T00:36:36;19.60;99.90
15967;DHT22;15175;48.154;11.534;2022-08-25T00:39:04;19.60;99.90
15967;DHT22;15175;48.154;11.534;2022-08-25T00:41:32;19.60;99.90
15967;DHT22;15175;48.154;11.534;2022-08-25T00:44:03;19.60;99.90
15967;DHT22;15175;48.154;11.534;2022-08-25T00:46:35;19.50;99.90
15967;DHT22;15175;48.154;11.534;2022-08-25T00:49:05;19.50;99.90
15967;DHT22;15175;48.154;11.534;2022-08-25T00:51:38;19.50;99.90
15967;DHT22;15175;48.154;11.534;2022-08-25T00:54:09;19.50;99.90
15967;DHT22;15175;48.154;11.534;2022-08-25T00:56:39;19.50;99.90
15967;DHT22;15175;48.154;11.534;2022-08-25T00:59:06;19.40;99.90
15967;DHT22;15175;48.154;11.534;2022-08-25T01:01:34;19.40;99.90
15967;DHT22;15175;48.154;11.534;2022-08-25T01:04:02;19.40;99.90
15967;DHT22;15175;48.154;11.534;2022-08-25T01:06:29;19.30;99.90
15967;DHT22;15175;48.154;11.534;2022-08-25T01:08:59;19.30;99.90
15967;DHT22;15175;48.154;11.534;2022-08-25T01:11:26;19.30;99.90
15967;DHT22;15175;48.154;11.534;2022-08-25T01:13:56;19.30;99.90
15967;DHT22;15175;48.154;11.534;2022-08-25T01:16:24;19.30;99.90
15967;DHT22;15175;48.154;11.534;2022-08-25T01:18:53;19.20;99.90
15967;DHT22;15175;48.154;11.534;2022-08-25T01:21:24;19.20;99.90
15967;DHT22;15175;48.154;11.534;2022-08-25T01:23:52;19.10;99.90
15967;DHT22;15175;48.154;11.534;2022-08-25T01:26:22;19.10;99.90
15967;DHT22;15175;48.154;11.534;2022-08-25T01:28:50;19.10;99.90
15967;DHT22;15175;48.154;11.534;2022-08-25T01:31:35;19.10;99.90
15967;DHT22;15175;48.154;11.534;2022-08-25T01:34:03;19.00;99.90
15967;DHT22;15175;48.154;11.534;2022-08-25T01:36:33;19.00;99.90
15967;DHT22;15175;48.154;11.534;2022-08-25T01:39:01;19.00;99.90
15967;DHT22;15175;48.154;11.534;2022-08-25T01:41:35;19.00;99.90
15967;DHT22;15175;48.154;11.534;2022-08-25T01:44:07;19.00;99.90
15967;DHT22;15175;48.154;11.534;2022-08-25T01:46:34;19.00;99.90
15967;DHT22;15175;48.154;11.534;2022-08-25T01:49:03;19.00;99.90
15967;DHT22;15175;48.154;11.534;2022-08-25T01:51:37;19.00;99.90
15967;DHT22;15175;48.154;11.534;2022-08-25T01:54:04;19.00;99.90
15967;DHT22;15175;48.154;11.534;2022-08-25T01:56:31;18.90;99.90
15967;DHT22;15175;48.154;11.534;2022-08-25T01:58:59;18.90;99.90
15967;DHT22;15175;48.154;11.534;2022-08-25T02:01:26;18.90;99.90
15967;DHT22;15175;48.154;11.534;2022-08-25T02:03:54;18.90;99.90
15967;DHT22;15175;48.154;11.534;2022-08-25T02:06:25;18.90;99.90
15967;DHT22;15175;48.154;11.534;2022-08-25T02:08:56;18.80;99.90
15967;DHT22;15175;48.154;11.534;2022-08-25T02:11:26;18.80;99.90
15967;DHT22;15175;48.154;11.534;2022-08-25T02:13:53;18.80;99.90
15967;DHT22;15175;48.154;11.534;2022-08-25T02:16:23;18.80;99.90
15967;DHT22;15175;48.154;11.534;2022-08-25T02:18:53;18.70;99.90
15967;DHT22;15175;48.154;11.534;2022-08-25T02:21:21;18.60;99.90
15967;DHT22;15175;48.154;11.534;2022-08-25T02:23:48;18.60;99.90
15967;DHT22;15175;48.154;11.534;2022-08-25T02:26:17;18.60;99.90
15967;DHT22;15175;48.154;11.534;2022-08-25T02:28:44;18.50;99.90
15967;DHT22;15175;48.154;11.534;2022-08-25T02:31:13;18.50;99.90
15967;DHT22;15175;48.154;11.534;2022-08-25T02:33:40;18.50;99.90
15967;DHT22;15175;48.154;11.534;2022-08-25T02:36:07;18.50;99.90
15967;DHT22;15175;48.154;11.534;2022-08-25T02:38:36;18.50;99.90
15967;DHT22;15175;48.154;11.534;2022-08-25T02:41:09;18.40;99.90
15967;DHT22;15175;48.154;11.534;2022-08-25T02:43:42;18.40;99.90
15967;DHT22;15175;48.154;11.534;2022-08-25T02:46:10;18.40;99.90
15967;DHT22;15175;48.154;11.534;2022-08-25T02:48:38;18.40;99.90
15967;DHT22;15175;48.154;11.534;2022-08-25T02:51:07;18.30;99.90
15967;DHT22;15175;48.154;11.534;2022-08-25T02:53:35;18.30;99.90
15967;DHT22;15175;48.154;11.534;2022-08-25T02:56:03;18.30;99.90
15967;DHT22;15175;48.154;11.534;2022-08-25T02:58:30;18.30;99.90
15967;DHT22;15175;48.154;11.534;2022-08-25T03:00:58;18.20;99.90
15967;DHT22;15175;48.154;11.534;2022-08-25T03:03:25;18.20;99.90
15967;DHT22;15175;48.154;11.534;2022-08-25T03:05:53;18.20;99.90
15967;DHT22;15175;48.154;11.534;2022-08-25T03:08:22;18.20;99.90
15967;DHT22;15175;48.154;11.534;2022-08-25T03:10:49;18.20;99.90
15967;DHT22;15175;48.154;11.534;2022-08-25T03:13:17;18.10;99.90
15967;DHT22;15175;48.154;11.534;2022-08-25T03:15:44;18.20;99.90
15967;DHT22;15175;48.154;11.534;2022-08-25T03:18:13;18.20;99.90
15967;DHT22;15175;48.154;11.534;2022-08-25T03:20:41;18.20;99.90
15967;DHT22;15175;48.154;11.534;2022-08-25T03:23:09;18.20;99.90
15967;DHT22;15175;48.154;11.534;2022-08-25T03:25:38;18.20;99.90
15967;DHT22;15175;48.154;11.534;2022-08-25T03:28:23;18.10;99.90
15967;DHT22;15175;48.154;11.534;2022-08-25T03:30:51;18.10;99.90
15967;DHT22;15175;48.154;11.534;2022-08-25T03:33:20;18.00;99.90
15967;DHT22;15175;48.154;11.534;2022-08-25T03:35:47;18.10;99.90
15967;DHT22;15175;48.154;11.534;2022-08-25T03:38:14;18.00;99.90
15967;DHT22;15175;48.154;11.534;2022-08-25T03:40:41;18.00;99.90
15967;DHT22;15175;48.154;11.534;2022-08-25T03:43:08;17.90;99.90
15967;DHT22;15175;48.154;11.534;2022-08-25T03:45:39;18.00;99.90
15967;DHT22;15175;48.154;11.534;2022-08-25T03:48:06;18.00;99.90
15967;DHT22;15175;48.154;11.534;2022-08-25T03:50:35;17.90;99.90
15967;DHT22;15175;48.154;11.534;2022-08-25T03:53:02;17.90;99.90
15967;DHT22;15175;48.154;11.534;2022-08-25T03:55:29;17.80;99.90
15967;DHT22;15175;48.154;11.534;2022-08-25T03:57:56;17.80;99.90
15967;DHT22;15175;48.154;11.534;2022-08-25T04:00:23;17.80;99.90
15967;DHT22;15175;48.154;11.534;2022-08-25T04:02:50;17.80;99.90
15967;DHT22;15175;48.154;11.534;2022-08-25T04:05:18;17.90;99.90
15967;DHT22;15175;48.154;11.534;2022-08-25T04:07:46;17.80;99.90
15967;DHT22;15175;48.154;11.534;2022-08-25T04:10:13;17.80;99.90
15967;DHT22;15175;48.154;11.534;2022-08-25T04:12:40;17.80;99.90
15967;DHT22;15175;48.154;11.534;2022-08-25T04:15:09;17.80;99.90
15967;DHT22;15175;48.154;11.534;2022-08-25T04:17:37;17.80;99.90
15967;DHT22;15175;48.154;11.534;2022-08-25T04:20:06;17.80;99.90
15967;DHT22;15175;48.154;11.534;2022-08-25T04:22:34;17.70;99.90
15967;DHT22;15175;48.154;11.534;2022-08-25T04:25:03;17.70;99.90
15967;DHT22;15175;48.154;11.534;2022-08-25T04:27:30;17.70;99.90
15967;DHT22;15175;48.154;11.534;2022-08-25T04:29:57;17.70;99.90
15967;DHT22;15175;48.154;11.534;2022-08-25T04:32:25;17.80;99.90
15967;DHT22;15175;48.154;11.534;2022-08-25T04:34:52;17.70;99.90
15967;DHT22;15175;48.154;11.534;2022-08-25T04:37:19;17.70;99.90
15967;DHT22;15175;48.154;11.534;2022-08-25T04:39:46;17.70;99.90
15967;DHT22;15175;48.154;11.534;2022-08-25T04:42:15;17.60;99.90
15967;DHT22;15175;48.154;11.534;2022-08-25T04:44:42;17.70;99.90
15967;DHT22;15175;48.154;11.534;2022-08-25T04:47:09;17.60;99.90
15967;DHT22;15175;48.154;11.534;2022-08-25T04:49:37;17.70;99.90
15967;DHT22;15175;48.154;11.534;2022-08-25T04:52:04;17.60;99.90
15967;DHT22;15175;48.154;11.534;2022-08-25T04:54:31;17.70;99.90
15967;DHT22;15175;48.154;11.534;2022-08-25T04:56:58;17.70;99.90
15967;DHT22;15175;48.154;11.534;2022-08-25T04:59:27;17.80;99.90
15967;DHT22;15175;48.154;11.534;2022-08-25T05:01:54;17.70;99.90
15967;DHT22;15175;48.154;11.534;2022-08-25T05:04:22;17.80;99.90
15967;DHT22;15175;48.154;11.534;2022-08-25T05:06:49;17.80;99.90
15967;DHT22;15175;48.154;11.534;2022-08-25T05:09:16;17.80;99.90
15967;DHT22;15175;48.154;11.534;2022-08-25T05:11:43;17.80;99.90
15967;DHT22;15175;48.154;11.534;2022-08-25T05:14:11;17.90;99.90
15967;DHT22;15175;48.154;11.534;2022-08-25T05:16:41;17.80;99.90
15967;DHT22;15175;48.154;11.534;2022-08-25T05:19:08;17.90;99.90
15967;DHT22;15175;48.154;11.534;2022-08-25T05:21:35;17.90;99.90
15967;DHT22;15175;48.154;11.534;2022-08-25T05:24:03;17.90;99.90
15967;DHT22;15175;48.154;11.534;2022-08-25T05:26:32;18.00;99.90
15967;DHT22;15175;48.154;11.534;2022-08-25T05:29:01;18.00;99.90
15967;DHT22;15175;48.154;11.534;2022-08-25T05:31:30;18.10;99.90
15967;DHT22;15175;48.154;11.534;2022-08-25T05:33:59;18.20;99.90
15967;DHT22;15175;48.154;11.534;2022-08-25T05:36:27;18.30;99.90
15967;DHT22;15175;48.154;11.534;2022-08-25T05:38:54;18.40;99.90
15967;DHT22;15175;48.154;11.534;2022-08-25T05:41:25;18.50;99.90
15967;DHT22;15175;48.154;11.534;2022-08-25T05:43:53;18.70;99.90
15967;DHT22;15175;48.154;11.534;2022-08-25T05:46:20;18.90;99.90
15967;DHT22;15175;48.154;11.534;2022-08-25T05:48:48;19.10;99.90
15967;DHT22;15175;48.154;11.534;2022-08-25T05:51:17;19.30;99.90
15967;DHT22;15175;48.154;11.534;2022-08-25T05:53:47;19.60;99.90
15967;DHT22;15175;48.154;11.534;2022-08-25T05:56:14;19.90;99.90
15967;DHT22;15175;48.154;11.534;2022-08-25T05:58:43;20.20;99.90
15967;DHT22;15175;48.154;11.534;2022-08-25T06:01:21;20.40;99.90
15967;DHT22;15175;48.154;11.534;2022-08-25T06:04:07;20.70;99.90
15967;DHT22;15175;48.154;11.534;2022-08-25T06:06:35;20.90;99.90
15967;DHT22;15175;48.154;11.534;2022-08-25T06:09:03;20.90;99.90
15967;DHT22;15175;48.154;11.534;2022-08-25T06:11:35;21.10;99.90
15967;DHT22;15175;48.154;11.534;2022-08-25T06:14:02;21.30;99.90
15967;DHT22;15175;48.154;11.534;2022-08-25T06:16:30;21.40;99.90
15967;DHT22;15175;48.154;11.534;2022-08-25T06:18:57;21.50;99.90
15967;DHT22;15175;48.154;11.534;2022-08-25T06:21:25;21.50;99.90
15967;DHT22;15175;48.154;11.534;2022-08-25T06:23:54;21.70;99.90
15967;DHT22;15175;48.154;11.534;2022-08-25T06:26:21;21.90;99.90
15967;DHT22;15175;48.154;11.534;2022-08-25T06:28:49;22.00;99.90
15967;DHT22;15175;48.154;11.534;2022-08-25T06:31:17;22.00;99.90
15967;DHT22;15175;48.154;11.534;2022-08-25T06:33:45;22.20;99.90
15967;DHT22;15175;48.154;11.534;2022-08-25T06:36:12;22.20;99.90
15967;DHT22;15175;48.154;11.534;2022-08-25T06:38:40;22.30;99.90
15967;DHT22;15175;48.154;11.534;2022-08-25T06:41:09;22.40;99.90
15967;DHT22;15175;48.154;11.534;2022-08-25T06:43:37;22.30;99.90
15967;DHT22;15175;48.154;11.534;2022-08-25T06:46:08;22.40;99.90
15967;DHT22;15175;48.154;11.534;2022-08-25T06:48:35;22.60;99.90
15967;DHT22;15175;48.154;11.534;2022-08-25T06:51:05;22.80;99.90
15967;DHT22;15175;48.154;11.534;2022-08-25T06:53:33;22.90;99.90
15967;DHT22;15175;48.154;11.534;2022-08-25T06:56:02;23.00;99.90
15967;DHT22;15175;48.154;11.534;2022-08-25T06:58:31;23.00;99.90
15967;DHT22;15175;48.154;11.534;2022-08-25T07:01:06;23.10;99.90
15967;DHT22;15175;48.154;11.534;2022-08-25T07:03:35;23.30;99.90
15967;DHT22;15175;48.154;11.534;2022-08-25T07:06:02;23.40;99.90
15967;DHT22;15175;48.154;11.534;2022-08-25T07:08:32;23.40;99.90
15967;DHT22;15175;48.154;11.534;2022-08-25T07:11:04;23.40;99.90
15967;DHT22;15175;48.154;11.534;2022-08-25T07:13:33;23.40;99.90
15967;DHT22;15175;48.154;11.534;2022-08-25T07:16:01;23.50;99.90
15967;DHT22;15175;48.154;11.534;2022-08-25T07:18:28;23.50;99.90
15967;DHT22;15175;48.154;11.534;2022-08-25T07:20:55;23.60;99.90
15967;DHT22;15175;48.154;11.534;2022-08-25T07:23:24;23.80;99.90
15967;DHT22;15175;48.154;11.534;2022-08-25T07:25:51;24.00;99.90
15967;DHT22;15175;48.154;11.534;2022-08-25T07:28:20;24.10;99.90
15967;DHT22;15175;48.154;11.534;2022-08-25T07:30:49;24.10;99.90
15967;DHT22;15175;48.154;11.534;2022-08-25T07:33:17;24.10;99.90
15967;DHT22;15175;48.154;11.534;2022-08-25T07:35:44;24.20;99.90
15967;DHT22;15175;48.154;11.534;2022-08-25T07:38:10;24.40;99.90
15967;DHT22;15175;48.154;11.534;2022-08-25T07:40:37;24.50;99.90
15967;DHT22;15175;48.154;11.534;2022-08-25T07:43:05;24.50;99.90
15967;DHT22;15175;48.154;11.534;2022-08-25T07:45:36;24.50;99.90
15967;DHT22;15175;48.154;11.534;2022-08-25T07:48:07;24.70;99.90
15967;DHT22;15175;48.154;11.534;2022-08-25T07:50:36;24.90;99.90
15967;DHT22;15175;48.154;11.534;2022-08-25T07:53:04;25.00;99.90
15967;DHT22;15175;48.154;11.534;2022-08-25T07:55:33;25.00;99.90
15967;DHT22;15175;48.154;11.534;2022-08-25T07:58:01;25.10;99.90
15967;DHT22;15175;48.154;11.534;2022-08-25T08:00:30;25.20;99.90
15967;DHT22;15175;48.154;11.534;2022-08-25T08:02:59;25.10;99.90
15967;DHT22;15175;48.154;11.534;2022-08-25T08:05:28;25.00;99.90
15967;DHT22;15175;48.154;11.534;2022-08-25T08:07:55;24.90;99.90
15967;DHT22;15175;48.154;11.534;2022-08-25T08:10:23;24.80;99.90
15967;DHT22;15175;48.154;11.534;2022-08-25T08:12:50;24.90;99.90
15967;DHT22;15175;48.154;11.534;2022-08-25T08:15:18;25.00;99.90
15967;DHT22;15175;48.154;11.534;2022-08-25T08:17:45;25.10;99.90
15967;DHT22;15175;48.154;11.534;2022-08-25T08:20:13;25.10;99.90
15967;DHT22;15175;48.154;11.534;2022-08-25T08:22:42;25.20;99.90
15967;DHT22;15175;48.154;11.534;2022-08-25T08:25:10;25.30;99.90
15967;DHT22;15175;48.154;11.534;2022-08-25T08:27:38;25.40;99.90
15967;DHT22;15175;48.154;11.534;2022-08-25T08:30:07;25.50;99.90
15967;DHT22;15175;48.154;11.534;2022-08-25T08:32:34;25.60;99.90
15967;DHT22;15175;48.154;11.534;2022-08-25T08:35:01;25.70;99.90
15967;DHT22;15175;48.154;11.534;2022-08-25T08:37:30;25.70;99.90
15967;DHT22;15175;48.154;11.534;2022-08-25T08:39:59;25.90;99.90
15967;DHT22;15175;48.154;11.534;2022-08-25T08:42:37;26.20;99.90
15967;DHT22;15175;48.154;11.534;2022-08-25T08:45:20;26.30;99.90
15967;DHT22;15175;48.154;11.534;2022-08-25T08:50:55;26.50;99.90
15967;DHT22;15175;48.154;11.534;2022-08-25T08:53:31;26.50;99.90
15967;DHT22;15175;48.154;11.534;2022-08-25T08:56:09;26.70;99.90
15967;DHT22;15175;48.154;11.534;2022-08-25T08:58:40;26.60;99.90
15967;DHT22;15175;48.154;11.534;2022-08-25T09:01:11;26.60;99.90
15967;DHT22;15175;48.154;11.534;2022-08-25T09:03:41;26.70;99.90
15967;DHT22;15175;48.154;11.534;2022-08-25T09:06:11;26.90;99.90
15967;DHT22;15175;48.154;11.534;2022-08-25T09:08:40;26.90;99.90
15967;DHT22;15175;48.154;11.534;2022-08-25T09:11:15;26.90;99.90
15967;DHT22;15175;48.154;11.534;2022-08-25T09:14:04;27.10;99.90
15967;DHT22;15175;48.154;11.534;2022-08-25T09:16:41;27.00;99.90
15967;DHT22;15175;48.154;11.534;2022-08-25T09:19:36;26.90;99.90
15967;DHT22;15175;48.154;11.534;2022-08-25T09:22:12;26.90;99.90
15967;DHT22;15175;48.154;11.534;2022-08-25T09:24:50;26.90;99.90
15967;DHT22;15175;48.154;11.534;2022-08-25T09:27:27;26.90;99.90
15967;DHT22;15175;48.154;11.534;2022-08-25T09:30:02;27.00;99.90
15967;DHT22;15175;48.154;11.534;2022-08-25T09:32:33;26.80;99.90
15967;DHT22;15175;48.154;11.534;2022-08-25T09:35:02;26.70;99.90
15967;DHT22;15175;48.154;11.534;2022-08-25T09:37:29;26.70;99.90
15967;DHT22;15175;48.154;11.534;2022-08-25T09:39:56;26.80;99.90
15967;DHT22;15175;48.154;11.534;2022-08-25T09:42:45;26.80;99.90
15967;DHT22;15175;48.154;11.534;2022-08-25T09:45:14;26.80;99.90
15967;DHT22;15175;48.154;11.534;2022-08-25T09:47:42;26.80;99.90
15967;DHT22;15175;48.154;11.534;2022-08-25T09:50:14;26.70;99.90
15967;DHT22;15175;48.154;11.534;2022-08-25T09:52:42;26.80;99.90
15967;DHT22;15175;48.154;11.534;2022-08-25T09:55:28;26.90;99.90
15967;DHT22;15175;48.154;11.534;2022-08-25T09:58:16;27.00;99.90
15967;DHT22;15175;48.154;11.534;2022-08-25T10:00:44;27.10;99.90
15967;DHT22;15175;48.154;11.534;2022-08-25T10:03:26;27.20;99.90
15967;DHT22;15175;48.154;11.534;2022-08-25T10:06:02;27.40;99.90
15967;DHT22;15175;48.154;11.534;2022-08-25T10:08:34;27.40;99.90
15967;DHT22;15175;48.154;11.534;2022-08-25T10:11:04;27.40;99.90
15967;DHT22;15175;48.154;11.534;2022-08-25T10:13:40;27.40;99.90
15967;DHT22;15175;48.154;11.534;2022-08-25T10:16:11;27.30;99.90
15967;DHT22;15175;48.154;11.534;2022-08-25T10:18:38;27.30;99.90
15967;DHT22;15175;48.154;11.534;2022-08-25T10:21:11;27.30;99.90
15967;DHT22;15175;48.154;11.534;2022-08-25T10:23:43;27.40;99.90
15967;DHT22;15175;48.154;11.534;2022-08-25T10:26:27;27.40;99.90
15967;DHT22;15175;48.154;11.534;2022-08-25T10:29:09;27.40;99.90
15967;DHT22;15175;48.154;11.534;2022-08-25T10:31:45;27.40;99.90
15967;DHT22;15175;48.154;11.534;2022-08-25T10:34:35;27.40;99.90
15967;DHT22;15175;48.154;11.534;2022-08-25T10:37:09;27.50;99.90
15967;DHT22;15175;48.154;11.534;2022-08-25T10:39:42;27.40;99.90
15967;DHT22;15175;48.154;11.534;2022-08-25T10:42:29;27.40;99.90
15967;DHT22;15175;48.154;11.534;2022-08-25T10:45:15;27.40;99.90
15967;DHT22;15175;48.154;11.534;2022-08-25T10:51:07;27.10;99.90
15967;DHT22;15175;48.154;11.534;2022-08-25T10:53:46;27.10;99.90
15967;DHT22;15175;48.154;11.534;2022-08-25T10:56:20;27.00;99.90
15967;DHT22;15175;48.154;11.534;2022-08-25T11:02:08;27.00;99.90
15967;DHT22;15175;48.154;11.534;2022-08-25T11:04:42;27.00;99.90
15967;DHT22;15175;48.154;11.534;2022-08-25T11:07:14;26.90;99.90
15967;DHT22;15175;48.154;11.534;2022-08-25T11:09:46;27.00;99.90
15967;DHT22;15175;48.154;11.534;2022-08-25T11:12:20;27.00;99.90
15967;DHT22;15175;48.154;11.534;2022-08-25T11:14:54;27.00;99.90
15967;DHT22;15175;48.154;11.534;2022-08-25T11:17:25;27.10;99.90
15967;DHT22;15175;48.154;11.534;2022-08-25T11:19:58;27.20;99.90
15967;DHT22;15175;48.154;11.534;2022-08-25T11:22:31;27.40;99.90
15967;DHT22;15175;48.154;11.534;2022-08-25T11:25:05;27.30;99.90
15967;DHT22;15175;48.154;11.534;2022-08-25T11:27:43;27.20;99.90
15967;DHT22;15175;48.154;11.534;2022-08-25T11:30:14;27.20;99.90
15967;DHT22;15175;48.154;11.534;2022-08-25T11:32:47;27.10;99.90
15967;DHT22;15175;48.154;11.534;2022-08-25T11:35:17;27.10;99.90
15967;DHT22;15175;48.154;11.534;2022-08-25T11:38:01;27.10;99.90
15967;DHT22;15175;48.154;11.534;2022-08-25T11:40:39;27.10;99.90
15967;DHT22;15175;48.154;11.534;2022-08-25T11:43:25;27.20;99.90
15967;DHT22;15175;48.154;11.534;2022-08-25T11:46:06;27.40;99.90
15967;DHT22;15175;48.154;11.534;2022-08-25T11:48:45;27.40;99.90
15967;DHT22;15175;48.154;11.534;2022-08-25T11:51:30;27.40;99.90
15967;DHT22;15175;48.154;11.534;2022-08-25T11:54:15;27.40;99.90
15967;DHT22;15175;48.154;11.534;2022-08-25T11:56:51;27.40;99.90
15967;DHT22;15175;48.154;11.534;2022-08-25T12:02:38;27.40;99.90
15967;DHT22;15175;48.154;11.534;2022-08-25T12:05:10;27.50;99.90
15967;DHT22;15175;48.154;11.534;2022-08-25T12:07:58;27.50;99.90
15967;DHT22;15175;48.154;11.534;2022-08-25T12:10:54;27.50;99.90
15967;DHT22;15175;48.154;11.534;2022-08-25T12:13:41;27.40;99.90
15967;DHT22;15175;48.154;11.534;2022-08-25T12:16:31;27.50;99.90
15967;DHT22;15175;48.154;11.534;2022-08-25T12:19:25;27.70;99.90
15967;DHT22;15175;48.154;11.534;2022-08-25T12:21:56;27.80;99.90
15967;DHT22;15175;48.154;11.534;2022-08-25T12:24:43;27.80;99.90
15967;DHT22;15175;48.154;11.534;2022-08-25T12:27:21;27.80;99.90
15967;DHT22;15175;48.154;11.534;2022-08-25T12:29:56;28.00;99.90
15967;DHT22;15175;48.154;11.534;2022-08-25T12:32:38;27.80;99.90
15967;DHT22;15175;48.154;11.534;2022-08-25T12:35:18;27.70;99.90
15967;DHT22;15175;48.154;11.534;2022-08-25T12:38:06;27.70;99.90
15967;DHT22;15175;48.154;11.534;2022-08-25T12:40:37;27.70;99.90
15967;DHT22;15175;48.154;11.534;2022-08-25T12:43:21;27.80;99.90
15967;DHT22;15175;48.154;11.534;2022-08-25T12:45:51;27.70;99.90
15967;DHT22;15175;48.154;11.534;2022-08-25T12:51:24;27.80;99.90
15967;DHT22;15175;48.154;11.534;2022-08-25T12:53:58;27.70;99.90
15967;DHT22;15175;48.154;11.534;2022-08-25T12:56:30;27.60;99.90
15967;DHT22;15175;48.154;11.534;2022-08-25T12:59:10;27.50;99.90
15967;DHT22;15175;48.154;11.534;2022-08-25T13:01:51;27.40;99.90
15967;DHT22;15175;48.154;11.534;2022-08-25T13:05:00;27.60;99.90
15967;DHT22;15175;48.154;11.534;2022-08-25T13:07:40;27.70;99.90
15967;DHT22;15175;48.154;11.534;2022-08-25T13:10:23;27.80;99.90
15967;DHT22;15175;48.154;11.534;2022-08-25T13:12:58;27.80;99.90
15967;DHT22;15175;48.154;11.534;2022-08-25T13:15:33;27.80;99.90
15967;DHT22;15175;48.154;11.534;2022-08-25T13:18:18;28.00;99.90
15967;DHT22;15175;48.154;11.534;2022-08-25T13:20:47;28.00;99.90
15967;DHT22;15175;48.154;11.534;2022-08-25T13:23:18;28.00;99.90
15967;DHT22;15175;48.154;11.534;2022-08-25T13:25:51;28.10;99.90
15967;DHT22;15175;48.154;11.534;2022-08-25T13:28:23;28.00;99.90
15967;DHT22;15175;48.154;11.534;2022-08-25T13:31:00;28.00;99.90
15967;DHT22;15175;48.154;11.534;2022-08-25T13:33:28;28.10;99.90
15967;DHT22;15175;48.154;11.534;2022-08-25T13:35:57;28.10;99.90
15967;DHT22;15175;48.154;11.534;2022-08-25T13:38:43;27.90;99.90
15967;DHT22;15175;48.154;11.534;2022-08-25T13:41:17;28.00;99.90
15967;DHT22;15175;48.154;11.534;2022-08-25T13:43:44;28.20;99.90
15967;DHT22;15175;48.154;11.534;2022-08-25T13:46:11;28.40;99.90
15967;DHT22;15175;48.154;11.534;2022-08-25T13:48:40;28.30;99.90
15967;DHT22;15175;48.154;11.534;2022-08-25T13:51:18;28.20;99.90
15967;DHT22;15175;48.154;11.534;2022-08-25T13:53:53;28.00;99.90
15967;DHT22;15175;48.154;11.534;2022-08-25T13:56:34;27.80;99.90
15967;DHT22;15175;48.154;11.534;2022-08-25T13:59:04;27.80;99.90
15967;DHT22;15175;48.154;11.534;2022-08-25T14:01:33;27.80;99.90
15967;DHT22;15175;48.154;11.534;2022-08-25T14:04:30;27.90;99.90
15967;DHT22;15175;48.154;11.534;2022-08-25T14:07:13;27.70;99.90
15967;DHT22;15175;48.154;11.534;2022-08-25T14:09:47;27.50;99.90
15967;DHT22;15175;48.154;11.534;2022-08-25T14:12:32;27.40;99.90
15967;DHT22;15175;48.154;11.534;2022-08-25T14:15:05;27.30;99.90
15967;DHT22;15175;48.154;11.534;2022-08-25T14:17:33;27.40;99.90
15967;DHT22;15175;48.154;11.534;2022-08-25T14:20:01;27.40;99.90
15967;DHT22;15175;48.154;11.534;2022-08-25T14:22:28;27.60;99.90
15967;DHT22;15175;48.154;11.534;2022-08-25T14:24:56;27.70;99.90
15967;DHT22;15175;48.154;11.534;2022-08-25T14:27:23;27.70;99.90
15967;DHT22;15175;48.154;11.534;2022-08-25T14:29:52;27.70;99.90
15967;DHT22;15175;48.154;11.534;2022-08-25T14:32:19;27.80;99.90
15967;DHT22;15175;48.154;11.534;2022-08-25T14:34:46;27.60;99.90
15967;DHT22;15175;48.154;11.534;2022-08-25T14:37:15;27.70;99.90
15967;DHT22;15175;48.154;11.534;2022-08-25T14:39:43;27.80;99.90
15967;DHT22;15175;48.154;11.534;2022-08-25T14:42:11;27.70;99.90
15967;DHT22;15175;48.154;11.534;2022-08-25T14:44:38;27.60;99.90
15967;DHT22;15175;48.154;11.534;2022-08-25T14:47:07;27.60;99.90
15967;DHT22;15175;48.154;11.534;2022-08-25T14:49:37;27.60;99.90
15967;DHT22;15175;48.154;11.534;2022-08-25T14:52:09;27.70;99.90
15967;DHT22;15175;48.154;11.534;2022-08-25T14:54:39;27.70;99.90
15967;DHT22;15175;48.154;11.534;2022-08-25T14:57:06;27.70;99.90
15967;DHT22;15175;48.154;11.534;2022-08-25T14:59:33;27.70;99.90
15967;DHT22;15175;48.154;11.534;2022-08-25T15:02:00;27.70;99.90
15967;DHT22;15175;48.154;11.534;2022-08-25T15:04:29;27.70;99.90
15967;DHT22;15175;48.154;11.534;2022-08-25T15:06:58;27.60;99.90
15967;DHT22;15175;48.154;11.534;2022-08-25T15:09:26;27.60;99.90
15967;DHT22;15175;48.154;11.534;2022-08-25T15:11:54;27.50;99.90
15967;DHT22;15175;48.154;11.534;2022-08-25T15:14:23;27.40;99.90
15967;DHT22;15175;48.154;11.534;2022-08-25T15:16:53;27.20;99.90
15967;DHT22;15175;48.154;11.534;2022-08-25T15:19:24;27.20;99.90
15967;DHT22;15175;48.154;11.534;2022-08-25T15:21:53;27.20;99.90
15967;DHT22;15175;48.154;11.534;2022-08-25T15:24:22;27.10;99.90
15967;DHT22;15175;48.154;11.534;2022-08-25T15:26:52;27.00;99.90
15967;DHT22;15175;48.154;11.534;2022-08-25T15:29:20;26.90;99.90
15967;DHT22;15175;48.154;11.534;2022-08-25T15:31:48;27.00;99.90
15967;DHT22;15175;48.154;11.534;2022-08-25T15:34:15;26.90;99.90
15967;DHT22;15175;48.154;11.534;2022-08-25T15:36:43;27.00;99.90
15967;DHT22;15175;48.154;11.534;2022-08-25T15:39:11;27.00;99.90
15967;DHT22;15175;48.154;11.534;2022-08-25T15:41:38;27.00;99.90
15967;DHT22;15175;48.154;11.534;2022-08-25T15:44:07;26.90;99.90
15967;DHT22;15175;48.154;11.534;2022-08-25T15:46:36;26.80;99.90
15967;DHT22;15175;48.154;11.534;2022-08-25T15:49:04;26.80;99.90
15967;DHT22;15175;48.154;11.534;2022-08-25T15:51:31;26.80;99.90
15967;DHT22;15175;48.154;11.534;2022-08-25T15:53:59;26.70;99.90
15967;DHT22;15175;48.154;11.534;2022-08-25T15:56:27;26.70;99.90